Weather History for Wrangell, AK

Change the Weather History Date:

Wednesday, March 6, 2013

  Actual Average Record
Temperature  
Mean Temperature 30 °F -  
Max Temperature 37 °F 39 °F 48 °F (1984)
Min Temperature 24 °F 27 °F 9 °F (1987)
Degree Days  
Heating Degree Days 34    
Moisture  
Dew Point 18 °F    
Average Humidity 60    
Maximum Humidity 74    
Minimum Humidity 41    
Precipitation  
Precipitation 0.00 in - - ()
Sea Level Pressure  
Sea Level Pressure 29.95 in    
Wind  
Wind Speed 5 mph (SSW)    
Max Wind Speed 9 mph    
Max Gust Speed -    
Visibility 10 miles    
Events      
Averages and records for this station are not official NWS values.
T = Trace of Precipitation, MM = Missing Value Source: NWS Daily Summary

Daily Weather History Graph

Daily Weather History Graph

Search for Another Location

Airport:

Trip Planner

Search our weather history database for the weather conditions in past years. The results will help you decide how hot, cold, wet, or windy it might be!

Date:

Astronomy

Mar. 06, 2013 Rise Set
Actual Time 6:27 AM AKST 5:34 PM AKST
Civil Twilight 5:50 AM AKST 6:12 PM AKST
Nautical Twilight 5:06 AM AKST 6:56 PM AKST
Astronomical Twilight 4:21 AM AKST 7:40 PM AKST
Moon 3:32 AM AKST (3/6) 11:36 AM AKST (3/6)
Length of Visible Light 12h 22m
Length of Day
11h 07m
Waning Crescent, 28% of the Moon is Illuminated
Mar 6
Waning Crescent
Mar 11
New
Mar 19
First Quarter
Mar 27
Full
Apr 2
Last Quarter

Hourly Weather History & Observations

Time (AKST) Temp. Windchill Dew Point Humidity Pressure Visibility Wind Dir Wind Speed Gust Speed Precip Events Conditions
12:16 AM 28.4 °F 22.2 °F 19.4 °F 69% 29.98 in 10.0 mi SSE 5.8 mph - N/A   Clear
12:36 AM 28.4 °F 22.2 °F 19.4 °F 69% 29.98 in 10.0 mi SSE 5.8 mph - N/A   Clear
12:56 AM 28.4 °F 22.2 °F 19.4 °F 69% 29.98 in 10.0 mi SSE 5.8 mph - N/A   Clear
1:16 AM 28.4 °F 24.6 °F 19.4 °F 69% 29.99 in 10.0 mi SE 3.5 mph - N/A   Clear
1:36 AM 28.4 °F 23.3 °F 19.4 °F 69% 29.98 in 10.0 mi SE 4.6 mph - N/A   Clear
1:56 AM 28.4 °F 24.6 °F 19.4 °F 69% 29.98 in 10.0 mi SE 3.5 mph - N/A   Clear
2:16 AM 26.6 °F 21.2 °F 19.4 °F 74% 29.97 in 10.0 mi SE 4.6 mph - N/A   Clear
2:36 AM 26.6 °F 21.2 °F 17.6 °F 69% 29.97 in 10.0 mi SSE 4.6 mph - N/A   Clear
2:56 AM 26.6 °F 20.0 °F 19.4 °F 74% 29.96 in 10.0 mi SE 5.8 mph - N/A   Clear
3:16 AM 26.6 °F 19.1 °F 19.4 °F 74% 29.96 in 10.0 mi SSE 6.9 mph - N/A   Clear
3:36 AM 26.6 °F 19.1 °F 19.4 °F 74% 29.96 in 10.0 mi SSE 6.9 mph - N/A   Clear
3:56 AM 26.6 °F 20.0 °F 17.6 °F 69% 29.96 in 10.0 mi SSE 5.8 mph - N/A   Clear
4:16 AM 26.6 °F 20.0 °F 17.6 °F 69% 29.96 in 10.0 mi SSE 5.8 mph - N/A   Clear
4:36 AM 26.6 °F 20.0 °F 17.6 °F 69% 29.96 in 10.0 mi SSE 5.8 mph - N/A   Clear
4:56 AM 26.6 °F 22.6 °F 17.6 °F 69% 29.97 in 10.0 mi South 3.5 mph - N/A   Clear
5:16 AM 26.6 °F - 19.4 °F 74% 29.96 in 10.0 mi Calm Calm - N/A   Clear
5:36 AM 24.8 °F 19.1 °F 17.6 °F 74% 29.96 in 10.0 mi SE 4.6 mph - N/A   Clear
5:56 AM 26.6 °F 21.2 °F 17.6 °F 69% 29.96 in 10.0 mi SSE 4.6 mph - N/A   Clear
6:16 AM 26.6 °F 21.2 °F 15.8 °F 64% 29.96 in 10.0 mi SSE 4.6 mph - N/A   Clear
6:36 AM 26.6 °F 22.6 °F 17.6 °F 69% 29.96 in 10.0 mi SE 3.5 mph - N/A   Clear
6:56 AM 26.6 °F 21.2 °F 17.6 °F 69% 29.96 in 10.0 mi SSE 4.6 mph - N/A   Clear
7:16 AM 26.6 °F 21.2 °F 17.6 °F 69% 29.96 in 10.0 mi SSE 4.6 mph - N/A   Clear
7:36 AM 26.6 °F 21.2 °F 19.4 °F 74% 29.96 in 10.0 mi SE 4.6 mph - N/A   Clear
7:56 AM 28.4 °F 22.2 °F 19.4 °F 69% 29.95 in 10.0 mi SE 5.8 mph - N/A   Clear
8:16 AM 28.4 °F 22.2 °F 21.2 °F 74% 29.95 in 10.0 mi ESE 5.8 mph - N/A   Clear
8:36 AM 28.4 °F 24.6 °F 21.2 °F 74% 29.96 in 10.0 mi SSE 3.5 mph - N/A   Clear
8:56 AM 30.2 °F - 19.4 °F 64% 29.96 in 10.0 mi Calm Calm - N/A   Clear
9:16 AM 30.2 °F 25.4 °F 21.2 °F 69% 29.96 in 10.0 mi NNW 4.6 mph - N/A   Clear
9:36 AM 30.2 °F 24.3 °F 19.4 °F 64% 29.96 in 10.0 mi NW 5.8 mph - N/A   Clear
9:56 AM 30.2 °F 26.7 °F 19.4 °F 64% 29.96 in 10.0 mi NW 3.5 mph - N/A   Clear
10:16 AM 30.2 °F 24.3 °F 19.4 °F 64% 29.96 in 10.0 mi NNW 5.8 mph - N/A   Clear
10:36 AM 32.0 °F 26.4 °F 19.4 °F 60% 29.96 in 10.0 mi NW 5.8 mph - N/A   Clear
10:56 AM 32.0 °F 25.6 °F 17.6 °F 55% 29.95 in 10.0 mi NW 6.9 mph - N/A   Clear
11:16 AM 33.8 °F 29.6 °F 17.6 °F 52% 29.96 in 10.0 mi NW 4.6 mph - N/A   Clear
11:36 AM 33.8 °F 28.6 °F 17.6 °F 52% 29.95 in 10.0 mi NW 5.8 mph - N/A   Clear
11:56 AM 33.8 °F 27.7 °F 17.6 °F 52% 29.95 in 10.0 mi NW 6.9 mph - N/A   Clear
12:16 PM 33.8 °F 29.6 °F 17.6 °F 52% 29.94 in 10.0 mi NNW 4.6 mph - N/A   Clear
12:36 PM 35.6 °F 29.9 °F 17.6 °F 48% 29.93 in 10.0 mi NNW 6.9 mph - N/A   Clear
12:56 PM 35.6 °F 29.9 °F 15.8 °F 44% 29.93 in 10.0 mi WNW 6.9 mph - N/A   Clear
1:16 PM 35.6 °F 30.7 °F 17.6 °F 48% 29.93 in 10.0 mi West 5.8 mph - N/A   Clear
1:36 PM 35.6 °F 29.2 °F 15.8 °F 44% 29.93 in 10.0 mi SW 8.1 mph - N/A   Clear
1:56 PM 37.4 °F 30.8 °F 17.6 °F 45% 29.92 in 10.0 mi West 9.2 mph - N/A   Clear
2:16 PM 37.4 °F 32.8 °F 17.6 °F 45% 29.93 in 10.0 mi West 5.8 mph - N/A   Clear
2:36 PM 37.4 °F 31.4 °F 15.8 °F 41% 29.93 in 10.0 mi WSW 8.1 mph - N/A   Clear
2:56 PM 37.4 °F 30.8 °F 17.6 °F 45% 29.93 in 10.0 mi West 9.2 mph - N/A   Clear
3:16 PM 37.4 °F 31.4 °F 17.6 °F 45% 29.93 in 10.0 mi West 8.1 mph - N/A   Clear
3:36 PM 37.4 °F 30.8 °F 15.8 °F 41% 29.93 in 10.0 mi WSW 9.2 mph - N/A   Clear
3:56 PM 37.4 °F 32.1 °F 15.8 °F 41% 29.93 in 10.0 mi WSW 6.9 mph - N/A   Clear
4:16 PM 37.4 °F 32.1 °F 19.4 °F 48% 29.92 in 10.0 mi WNW 6.9 mph - N/A   Clear
4:36 PM 37.4 °F 31.4 °F 17.6 °F 45% 29.92 in 10.0 mi WSW 8.1 mph - N/A   Clear
4:56 PM 35.6 °F 29.2 °F 17.6 °F 48% 29.92 in 10.0 mi SW 8.1 mph - N/A   Clear
5:16 PM 35.6 °F 29.9 °F 17.6 °F 48% 29.92 in 10.0 mi WSW 6.9 mph - N/A   Clear
5:36 PM 35.6 °F 30.7 °F 17.6 °F 48% 29.93 in 10.0 mi SW 5.8 mph - N/A   Clear
5:56 PM 33.8 °F 27.7 °F 15.8 °F 48% 29.92 in 10.0 mi SSW 6.9 mph - N/A   Clear
6:16 PM 33.8 °F 28.6 °F 17.6 °F 52% 29.93 in 10.0 mi WSW 5.8 mph - N/A   Clear
6:36 PM 33.8 °F 27.0 °F 17.6 °F 52% 29.93 in 10.0 mi West 8.1 mph - N/A   Clear
6:56 PM 32.0 °F 25.6 °F 17.6 °F 55% 29.93 in 10.0 mi WSW 6.9 mph - N/A   Clear
7:16 PM 30.2 °F 23.4 °F 17.6 °F 60% 29.93 in 10.0 mi South 6.9 mph - N/A   Clear
7:36 PM 30.2 °F 25.4 °F 17.6 °F 60% 29.94 in 10.0 mi South 4.6 mph - N/A   Clear
7:56 PM 30.2 °F 26.7 °F 17.6 °F 60% 29.94 in 10.0 mi SSE 3.5 mph - N/A   Clear
8:16 PM 30.2 °F 24.3 °F 15.8 °F 55% 29.95 in 10.0 mi South 5.8 mph - N/A   Clear
8:36 PM 30.2 °F 25.4 °F 17.6 °F 60% 29.96 in 10.0 mi SSE 4.6 mph - N/A   Clear
8:56 PM 30.2 °F 25.4 °F 17.6 °F 60% 29.97 in 10.0 mi South 4.6 mph - N/A   Clear
9:16 PM 28.4 °F 22.2 °F 17.6 °F 64% 29.96 in 10.0 mi SSE 5.8 mph - N/A   Clear
9:36 PM 28.4 °F 23.3 °F 17.6 °F 64% 29.97 in 10.0 mi SSE 4.6 mph - N/A   Clear
9:56 PM 30.2 °F 26.7 °F 17.6 °F 60% 29.97 in 10.0 mi SE 3.5 mph - N/A   Clear
10:16 PM 28.4 °F 23.3 °F 17.6 °F 64% 29.97 in 10.0 mi West 4.6 mph - N/A   Clear
10:36 PM 30.2 °F - 17.6 °F 60% 29.97 in 10.0 mi Calm Calm - N/A   Clear
10:56 PM 28.4 °F 20.4 °F 17.6 °F 64% 29.97 in 10.0 mi SSE 8.1 mph - N/A   Clear
11:16 PM 28.4 °F 22.2 °F 19.4 °F 69% 29.97 in 10.0 mi SE 5.8 mph - N/A   Clear
11:36 PM 28.4 °F 24.6 °F 17.6 °F 64% 29.97 in 10.0 mi SE 3.5 mph - N/A   Clear
11:56 PM 28.4 °F 24.6 °F 19.4 °F 69% 29.98 in 10.0 mi ESE 3.5 mph - N/A   Clear